Time;durP1;ratioP1;P1;durP2;ratioP2;P2;SDS_P1;SDS_P2;PMS_P1;PMS_P2;Temp;Humidity;BMP_temperature;BMP_pressure;BME280_temperature;BME280_humidity;BME280_pressure;Samples;Min_cycle;Max_cycle;Signal;HPM_P1;HPM_P2
2024/04/03 00:01:53;;;;;;;;;;;;;;;5.34;59.54;94817.38;4941006;28;19926;-71
2024/04/03 00:04:19;;;;;;;;;;;;;;;6.18;57.03;94806.69;4942311;28;19937;-71
2024/04/03 00:06:44;;;;;;;;;;;;;;;6.54;56.28;94819.47;4942822;28;19954;-71
2024/04/03 00:09:09;;;;;;;;;;;;;;;6.75;56.07;94808.31;4943491;29;20264;-72
2024/04/03 00:11:34;;;;;;;;;;;;;;;6.18;56.59;94804.88;4942054;28;19926;-71
2024/04/03 00:14:00;;;;;;;;;;;;;;;6.21;56.45;94807.19;4943198;28;19927;-71
2024/04/03 00:16:26;;;;;;;;;;;;;;;6.44;57.02;94805.59;4941175;28;20122;-71
2024/04/03 00:18:51;;;;;;;;;;;;;;;5.66;59.32;94803.50;4939873;28;20575;-71
2024/04/03 00:21:17;;;;;;;;;;;;;;;6.59;56.96;94803.06;4942701;28;19929;-71
2024/04/03 00:23:42;;;;;;;;;;;;;;;6.69;56.36;94802.88;4941514;28;20447;-71
2024/04/03 00:26:07;;;;;;;;;;;;;;;6.08;59.10;94801.59;4942576;29;20390;-71
2024/04/03 00:28:32;;;;;;;;;;;;;;;5.37;60.03;94803.03;4941907;28;19981;-72
2024/04/03 00:31:04;;;;;;;;;;;;;;;6.61;57.64;94793.16;4941755;28;19927;-71
2024/04/03 00:33:29;;;;;;;;;;;;;;;5.65;59.35;94797.41;4942374;28;20343;-72
2024/04/03 00:35:55;;;;;;;;;;;;;;;6.02;60.19;94778.50;4941140;28;20449;-72
2024/04/03 00:38:20;;;;;;;;;;;;;;;6.96;56.84;94782.19;4941904;28;19926;-72
2024/04/03 00:40:52;;;;;;;;;;;;;;;6.88;56.83;94775.97;4942580;28;19926;-72
2024/04/03 00:43:17;;;;;;;;;;;;;;;5.42;60.39;94790.16;4939373;28;20363;-72
2024/04/03 00:45:42;;;;;;;;;;;;;;;6.32;58.87;94782.19;4942009;28;19938;-72
2024/04/03 00:48:08;;;;;;;;;;;;;;;6.42;58.45;94771.41;4940497;28;20436;-73
2024/04/03 00:50:33;;;;;;;;;;;;;;;6.26;59.28;94777.59;4934699;28;19953;-72
2024/04/03 00:52:58;;;;;;;;;;;;;;;4.87;63.57;94784.50;4939971;28;19918;-72
2024/04/03 00:55:23;;;;;;;;;;;;;;;5.80;61.68;94776.41;4939751;28;20181;-72
2024/04/03 00:57:49;;;;;;;;;;;;;;;6.56;58.96;94766.41;4940595;28;20274;-72
2024/04/03 01:00:14;;;;;;;;;;;;;;;6.35;59.59;94762.50;4934989;29;19927;-72
2024/04/03 01:02:39;;;;;;;;;;;;;;;6.23;59.89;94770.00;4939860;28;19933;-72
2024/04/03 01:05:04;;;;;;;;;;;;;;;5.94;60.09;94777.53;4940555;28;20579;-72
2024/04/03 01:07:30;;;;;;;;;;;;;;;5.06;64.43;94770.19;4940460;28;19926;-72
2024/04/03 01:09:55;;;;;;;;;;;;;;;6.21;59.84;94764.06;4940183;28;19931;-72
2024/04/03 01:12:20;;;;;;;;;;;;;;;6.11;60.12;94766.91;4938059;28;20027;-72
2024/04/03 01:14:45;;;;;;;;;;;;;;;6.62;58.66;94758.59;4939632;28;20033;-72
2024/04/03 01:17:11;;;;;;;;;;;;;;;6.17;60.13;94762.75;4940274;28;20554;-72
2024/04/03 01:19:36;;;;;;;;;;;;;;;5.79;62.04;94752.81;4940024;28;20292;-72
2024/04/03 01:22:01;;;;;;;;;;;;;;;6.03;60.83;94754.56;4940273;28;19949;-72
2024/04/03 01:24:26;;;;;;;;;;;;;;;6.47;59.37;94750.53;4935017;28;19985;-73
2024/04/03 01:26:52;;;;;;;;;;;;;;;5.13;63.42;94751.88;4941218;28;20380;-72
2024/04/03 01:29:17;;;;;;;;;;;;;;;6.42;59.94;94749.44;4941471;28;20414;-73
2024/04/03 01:31:42;;;;;;;;;;;;;;;5.28;62.68;94749.44;4941225;28;20360;-73
2024/04/03 01:34:07;;;;;;;;;;;;;;;5.50;63.32;94756.84;4938909;28;20032;-72
2024/04/03 01:36:32;;;;;;;;;;;;;;;5.27;64.37;94742.47;4939897;28;19926;-72
2024/04/03 01:38:58;;;;;;;;;;;;;;;6.22;60.97;94740.09;4939950;28;19994;-71
2024/04/03 01:41:23;;;;;;;;;;;;;;;5.30;64.00;94736.88;4941620;29;19926;-72
2024/04/03 01:43:48;;;;;;;;;;;;;;;5.86;61.63;94741.38;4939400;28;20361;-72
2024/04/03 01:46:13;;;;;;;;;;;;;;;5.97;61.44;94740.19;4939600;28;20099;-72
2024/04/03 01:48:39;;;;;;;;;;;;;;;5.72;61.58;94745.53;4937885;28;20254;-72
2024/04/03 01:51:07;;;;;;;;;;;;;;;5.13;62.94;94745.81;4938617;28;20411;-72
2024/04/03 01:53:32;;;;;;;;;;;;;;;6.18;60.44;94728.22;4941110;28;20403;-72
2024/04/03 01:55:58;;;;;;;;;;;;;;;5.92;61.32;94731.13;4940905;28;19926;-72
2024/04/03 01:58:23;;;;;;;;;;;;;;;6.24;60.05;94727.53;4940588;28;19930;-72
2024/04/03 02:00:48;;;;;;;;;;;;;;;6.30;60.08;94725.19;4937066;28;19922;-72
2024/04/03 02:03:14;;;;;;;;;;;;;;;5.70;61.01;94723.78;4938979;28;20416;-72
2024/04/03 02:05:42;;;;;;;;;;;;;;;6.45;60.09;94720.81;4940827;29;19930;-72
2024/04/03 02:08:07;;;;;;;;;;;;;;;6.69;58.71;94715.56;4940756;28;19930;-72
2024/04/03 02:10:32;;;;;;;;;;;;;;;6.93;58.34;94714.56;4940005;28;19933;-72
2024/04/03 02:12:57;;;;;;;;;;;;;;;6.93;58.90;94709.28;4940610;28;19934;-73
2024/04/03 02:15:23;;;;;;;;;;;;;;;7.11;57.47;94711.63;4939127;28;20399;-72
2024/04/03 02:17:48;;;;;;;;;;;;;;;6.97;57.84;94712.41;4939919;28;20684;-72
2024/04/03 02:20:13;;;;;;;;;;;;;;;7.26;57.34;94716.97;4939529;28;19966;-72
2024/04/03 02:22:38;;;;;;;;;;;;;;;7.37;56.39;94717.53;4939824;28;19941;-72
2024/04/03 02:25:04;;;;;;;;;;;;;;;6.86;56.43;94714.47;4936225;28;20313;-72
2024/04/03 02:27:29;;;;;;;;;;;;;;;6.92;57.95;94709.47;4954435;28;20259;-73
2024/04/03 02:29:54;;;;;;;;;;;;;;;7.23;57.05;94713.84;4940477;28;20258;-73
2024/04/03 02:32:19;;;;;;;;;;;;;;;7.18;57.22;94710.91;4939772;28;19985;-71
2024/04/03 02:34:45;;;;;;;;;;;;;;;6.99;57.89;94705.94;4938581;28;19937;-70
2024/04/03 02:37:10;;;;;;;;;;;;;;;7.25;56.32;94701.25;4940956;28;19927;-71
2024/04/03 02:39:35;;;;;;;;;;;;;;;6.74;57.07;94694.72;4939743;28;20372;-70
2024/04/03 02:42:02;;;;;;;;;;;;;;;6.44;58.57;94691.91;4937747;28;20512;-70
2024/04/03 02:44:27;;;;;;;;;;;;;;;6.59;58.63;94698.13;4940637;28;19935;-70
2024/04/03 02:46:52;;;;;;;;;;;;;;;7.15;58.03;94690.94;4938632;28;20511;-70
2024/04/03 02:49:18;;;;;;;;;;;;;;;7.39;57.41;94697.00;4940368;28;20323;-70
2024/04/03 02:51:43;;;;;;;;;;;;;;;7.29;56.66;94691.97;4940285;28;19926;-70
2024/04/03 02:54:08;;;;;;;;;;;;;;;7.20;56.45;94693.00;4939203;29;19953;-70
2024/04/03 02:56:33;;;;;;;;;;;;;;;6.32;59.75;94691.50;4939489;28;19981;-71
2024/04/03 02:58:59;;;;;;;;;;;;;;;5.72;60.18;94692.72;4940341;28;20133;-70
2024/04/03 03:01:24;;;;;;;;;;;;;;;6.50;60.19;94676.19;4939596;28;20399;-70
2024/04/03 03:03:49;;;;;;;;;;;;;;;6.72;58.29;94679.03;4935544;28;20249;-70
2024/04/03 03:06:14;;;;;;;;;;;;;;;7.03;56.70;94687.88;4939625;29;19953;-70
2024/04/03 03:08:40;;;;;;;;;;;;;;;6.78;57.55;94690.72;4937003;29;19930;-70
2024/04/03 03:11:05;;;;;;;;;;;;;;;6.81;57.13;94679.78;4938777;28;20112;-70
2024/04/03 03:13:30;;;;;;;;;;;;;;;7.20;57.39;94682.44;4939542;28;20403;-70
2024/04/03 03:15:56;;;;;;;;;;;;;;;6.14;58.06;94676.72;4939451;28;20257;-70
2024/04/03 03:18:22;;;;;;;;;;;;;;;6.83;58.25;94671.69;4936763;28;19966;-70
2024/04/03 03:20:48;;;;;;;;;;;;;;;6.40;58.55;94672.09;4939906;28;20533;-70
2024/04/03 03:23:13;;;;;;;;;;;;;;;6.57;58.91;94652.53;4938761;28;19957;-70
2024/04/03 03:25:38;;;;;;;;;;;;;;;6.97;58.52;94660.28;4939136;28;20308;-70
2024/04/03 03:28:04;;;;;;;;;;;;;;;7.18;57.14;94653.50;4939696;28;19926;-70
2024/04/03 03:30:29;;;;;;;;;;;;;;;7.35;57.04;94645.41;4939978;28;20179;-70
2024/04/03 03:32:54;;;;;;;;;;;;;;;7.53;57.13;94637.09;4940171;28;19996;-70
2024/04/03 03:35:19;;;;;;;;;;;;;;;7.63;56.44;94628.88;4938226;28;20029;-70
2024/04/03 03:37:45;;;;;;;;;;;;;;;7.75;55.26;94622.09;4943357;28;19926;-70
2024/04/03 03:40:10;;;;;;;;;;;;;;;7.82;55.07;94632.00;4943024;28;20422;-71
2024/04/03 03:42:36;;;;;;;;;;;;;;;7.59;54.36;94624.94;4939649;28;20386;-70
2024/04/03 03:45:01;;;;;;;;;;;;;;;7.51;54.09;94631.13;4943401;29;19974;-70
2024/04/03 03:47:26;;;;;;;;;;;;;;;7.50;54.93;94613.63;4942669;28;20382;-70
2024/04/03 03:52:40;;;;;;;;;;;;;;;7.54;55.02;94621.03;4942055;28;19933;-70
2024/04/03 03:55:05;;;;;;;;;;;;;;;7.52;54.23;94625.66;4942669;28;20312;-70
2024/04/03 03:57:31;;;;;;;;;;;;;;;7.54;54.49;94613.06;4943280;29;19926;-70
2024/04/03 03:59:56;;;;;;;;;;;;;;;7.53;53.80;94613.25;4942864;28;20098;-70
2024/04/03 04:02:22;;;;;;;;;;;;;;;7.58;54.33;94610.88;4941356;28;19997;-70
2024/04/03 04:04:48;;;;;;;;;;;;;;;7.58;53.96;94607.41;4942787;29;20316;-70
2024/04/03 04:07:13;;;;;;;;;;;;;;;7.56;53.58;94606.75;4942869;28;19927;-70
2024/04/03 04:09:38;;;;;;;;;;;;;;;7.59;54.10;94615.19;4941927;29;19926;-70
2024/04/03 04:12:04;;;;;;;;;;;;;;;7.60;54.48;94608.03;4941834;28;19986;-70
2024/04/03 04:14:29;;;;;;;;;;;;;;;7.62;54.82;94603.38;4941983;28;19926;-70
2024/04/03 04:16:54;;;;;;;;;;;;;;;7.65;54.28;94600.38;4942266;28;20005;-70
2024/04/03 04:19:19;;;;;;;;;;;;;;;7.59;53.44;94606.41;4942273;28;19981;-70
2024/04/03 04:21:45;;;;;;;;;;;;;;;7.60;54.35;94608.03;4942175;28;20081;-70
2024/04/03 04:24:10;;;;;;;;;;;;;;;7.59;54.03;94607.22;4942169;28;20379;-70
2024/04/03 04:26:35;;;;;;;;;;;;;;;7.58;54.02;94600.28;4941707;28;20025;-70
2024/04/03 04:29:00;;;;;;;;;;;;;;;7.53;54.10;94597.34;4942459;29;19926;-70
2024/04/03 04:31:26;;;;;;;;;;;;;;;7.49;54.78;94596.91;4941605;28;20041;-70
2024/04/03 04:33:51;;;;;;;;;;;;;;;7.58;55.12;94599.47;4942226;28;20005;-70
2024/04/03 04:36:16;;;;;;;;;;;;;;;7.60;55.13;94595.63;4941529;28;20436;-70
2024/04/03 04:38:41;;;;;;;;;;;;;;;7.59;54.22;94604.59;4941655;28;19927;-70
2024/04/03 04:41:07;;;;;;;;;;;;;;;7.48;54.40;94597.09;4941667;29;19927;-70
2024/04/03 04:43:32;;;;;;;;;;;;;;;7.61;54.83;94588.47;4940723;28;20204;-70
2024/04/03 04:46:01;;;;;;;;;;;;;;;7.65;54.57;94595.09;4941824;28;19941;-70
2024/04/03 04:48:26;;;;;;;;;;;;;;;7.58;53.34;94592.31;4940985;28;19930;-70
2024/04/03 04:50:55;;;;;;;;;;;;;;;7.69;54.48;94595.53;4939576;28;20302;-70
2024/04/03 04:53:20;;;;;;;;;;;;;;;7.67;54.60;94587.75;4941813;28;20161;-71
2024/04/03 04:56:15;;;;;;;;;;;;;;;7.57;53.85;94584.56;4941196;28;20016;-71
2024/04/03 04:58:40;;;;;;;;;;;;;;;7.60;55.08;94581.53;4931537;28;19926;-70
2024/04/03 05:01:05;;;;;;;;;;;;;;;7.54;54.71;94583.94;4931708;29;20360;-70
2024/04/03 05:03:30;;;;;;;;;;;;;;;7.60;53.93;94578.91;4940941;28;19929;-72
2024/04/03 05:05:56;;;;;;;;;;;;;;;7.59;54.34;94575.44;4941182;28;19930;-71
2024/04/03 05:08:21;;;;;;;;;;;;;;;7.45;54.77;94574.44;4941353;28;19961;-70
2024/04/03 05:10:56;;;;;;;;;;;;;;;7.54;54.91;94570.69;4940905;28;20162;-72
2024/04/03 05:13:22;;;;;;;;;;;;;;;7.58;53.87;94572.97;4939461;29;20041;-71
2024/04/03 05:15:47;;;;;;;;;;;;;;;7.62;54.24;94566.31;4936508;29;20001;-71
2024/04/03 05:18:12;;;;;;;;;;;;;;;7.62;54.60;94563.66;4940888;28;19930;-71
2024/04/03 05:20:37;;;;;;;;;;;;;;;7.60;53.93;94568.31;4940708;28;20018;-72
2024/04/03 05:23:03;;;;;;;;;;;;;;;7.48;54.10;94574.06;4940290;28;19926;-70
2024/04/03 05:25:28;;;;;;;;;;;;;;;7.55;54.90;94576.78;4939707;28;19974;-71
2024/04/03 05:27:54;;;;;;;;;;;;;;;7.44;54.39;94569.34;4940414;28;20411;-71
2024/04/03 05:30:20;;;;;;;;;;;;;;;7.54;54.82;94573.34;4940885;28;19928;-71
2024/04/03 05:32:46;;;;;;;;;;;;;;;7.65;54.51;94574.69;4940778;28;19922;-72
2024/04/03 05:35:11;;;;;;;;;;;;;;;7.66;53.87;94568.38;4940717;28;20513;-70
2024/04/03 05:37:36;;;;;;;;;;;;;;;7.77;54.23;94577.72;4940431;28;19926;-72
2024/04/03 05:40:04;;;;;;;;;;;;;;;7.76;54.18;94575.22;4940680;28;20120;-72
2024/04/03 05:42:29;;;;;;;;;;;;;;;7.74;53.80;94574.59;4937795;28;19935;-72
2024/04/03 05:44:54;;;;;;;;;;;;;;;7.84;53.77;94584.91;4940514;29;19933;-72
2024/04/03 05:47:20;;;;;;;;;;;;;;;7.27;53.46;94580.94;4940150;28;19932;-72
2024/04/03 05:49:45;;;;;;;;;;;;;;;7.56;53.76;94589.06;4940955;29;20479;-71
2024/04/03 05:52:10;;;;;;;;;;;;;;;7.41;54.70;94589.88;4940219;28;19997;-71
2024/04/03 05:54:35;;;;;;;;;;;;;;;7.17;54.46;94596.25;4940577;28;19930;-70
2024/04/03 05:57:01;;;;;;;;;;;;;;;7.31;54.92;94593.81;4940638;28;20009;-70
2024/04/03 05:59:26;;;;;;;;;;;;;;;7.09;55.67;94599.00;4935773;28;19931;-70
2024/04/03 06:01:51;;;;;;;;;;;;;;;7.41;53.86;94600.47;4937637;29;20049;-71
2024/04/03 06:04:17;;;;;;;;;;;;;;;7.36;54.38;94602.84;4940353;28;19990;-71
2024/04/03 06:06:43;;;;;;;;;;;;;;;6.92;54.93;94607.09;4939754;28;19981;-71
2024/04/03 06:09:08;;;;;;;;;;;;;;;5.73;57.55;94606.41;4940804;29;19938;-71
2024/04/03 06:11:33;;;;;;;;;;;;;;;6.58;57.07;94605.72;4939870;28;19926;-71
2024/04/03 06:13:58;;;;;;;;;;;;;;;6.88;56.76;94603.16;4940632;29;20544;-72
2024/04/03 06:16:24;;;;;;;;;;;;;;;7.00;54.74;94612.31;4940280;28;20400;-71
2024/04/03 06:18:49;;;;;;;;;;;;;;;6.66;55.74;94616.25;4939669;28;19930;-71
2024/04/03 06:21:14;;;;;;;;;;;;;;;7.19;55.12;94617.25;4940491;28;20265;-71
2024/04/03 06:23:39;;;;;;;;;;;;;;;7.18;55.01;94612.97;4939230;28;19927;-71
2024/04/03 06:26:05;;;;;;;;;;;;;;;6.76;55.29;94611.53;4936448;29;20451;-71
2024/04/03 06:28:30;;;;;;;;;;;;;;;7.16;54.30;94610.50;4939977;28;19927;-72
2024/04/03 06:30:55;;;;;;;;;;;;;;;7.18;54.80;94595.28;4939444;28;20412;-71
2024/04/03 06:33:21;;;;;;;;;;;;;;;6.75;55.03;94603.78;4940252;28;19922;-71
2024/04/03 06:35:46;;;;;;;;;;;;;;;7.44;54.28;94604.56;4939750;28;19986;-71
2024/04/03 06:38:12;;;;;;;;;;;;;;;7.25;54.08;94601.47;4939744;29;20230;-71
2024/04/03 06:40:38;;;;;;;;;;;;;;;6.45;54.93;94601.84;4940013;28;20031;-71
2024/04/03 06:43:04;;;;;;;;;;;;;;;7.09;54.99;94596.34;4937941;28;20148;-72
2024/04/03 06:45:29;;;;;;;;;;;;;;;6.38;55.79;94598.25;4940276;28;19933;-71
2024/04/03 06:47:54;;;;;;;;;;;;;;;6.87;55.78;94598.88;4938643;28;19937;-71
2024/04/03 06:50:20;;;;;;;;;;;;;;;7.29;54.17;94599.28;4939095;28;19933;-72
2024/04/03 06:52:45;;;;;;;;;;;;;;;6.53;55.79;94605.44;4940152;28;19923;-71
2024/04/03 06:55:10;;;;;;;;;;;;;;;5.94;57.89;94594.41;4939375;28;19982;-71
2024/04/03 06:57:35;;;;;;;;;;;;;;;6.55;56.11;94590.22;4938573;28;20119;-71
2024/04/03 07:00:01;;;;;;;;;;;;;;;7.06;54.92;94586.94;4936355;28;20391;-71
2024/04/03 07:02:26;;;;;;;;;;;;;;;6.57;56.36;94583.78;4938815;28;19926;-71
2024/04/03 07:04:52;;;;;;;;;;;;;;;6.45;56.87;94582.50;4938895;29;20021;-71
2024/04/03 07:07:17;;;;;;;;;;;;;;;5.70;56.92;94585.59;4932996;28;20355;-71
2024/04/03 07:09:42;;;;;;;;;;;;;;;5.41;57.67;94579.94;4938783;28;19993;-71
2024/04/03 07:12:07;;;;;;;;;;;;;;;6.66;56.67;94578.41;4937374;28;19974;-71
2024/04/03 07:14:33;;;;;;;;;;;;;;;4.58;59.91;94586.22;4938682;28;19922;-72
2024/04/03 07:16:58;;;;;;;;;;;;;;;6.68;56.91;94576.38;4938934;29;19974;-72
2024/04/03 07:19:23;;;;;;;;;;;;;;;7.12;55.01;94580.94;4938804;28;19927;-73
2024/04/03 07:21:49;;;;;;;;;;;;;;;7.08;54.78;94571.72;4939280;29;19989;-73
2024/04/03 07:24:14;;;;;;;;;;;;;;;6.06;58.04;94581.63;4938220;28;20509;-74
2024/04/03 07:26:39;;;;;;;;;;;;;;;7.26;55.25;94579.28;4938409;28;19934;-73
2024/04/03 07:29:04;;;;;;;;;;;;;;;6.28;57.07;94574.69;4938575;28;19932;-72
2024/04/03 07:31:30;;;;;;;;;;;;;;;6.85;56.16;94569.13;4938295;28;19930;-73
2024/04/03 07:33:55;;;;;;;;;;;;;;;6.72;56.08;94581.16;4938919;28;19929;-72
2024/04/03 07:36:22;;;;;;;;;;;;;;;6.55;57.96;94566.41;4938911;28;20359;-73
2024/04/03 07:38:48;;;;;;;;;;;;;;;6.12;58.33;94570.34;4938584;28;20014;-72
2024/04/03 07:41:21;;;;;;;;;;;;;;;7.40;55.54;94567.06;4934720;28;19933;-73
2024/04/03 07:43:47;;;;;;;;;;;;;;;8.09;53.24;94568.69;4935970;28;20002;-72
2024/04/03 07:46:14;;;;;;;;;;;;;;;8.18;52.59;94575.50;4938275;29;20441;-73
2024/04/03 07:48:39;;;;;;;;;;;;;;;7.96;52.45;94575.47;4932804;28;20367;-72
2024/04/03 07:51:05;;;;;;;;;;;;;;;7.43;53.93;94581.75;4938418;28;19969;-72
2024/04/03 07:53:30;;;;;;;;;;;;;;;7.63;54.26;94587.31;4938154;28;19926;-73
2024/04/03 07:55:55;;;;;;;;;;;;;;;6.97;55.25;94588.84;4938475;28;19922;-72
2024/04/03 07:58:20;;;;;;;;;;;;;;;7.98;52.91;94585.88;4937207;28;20088;-72
2024/04/03 08:00:46;;;;;;;;;;;;;;;6.57;55.21;94589.06;4938043;28;19969;-73
2024/04/03 08:03:11;;;;;;;;;;;;;;;7.58;53.73;94588.88;4937627;28;20557;-72
2024/04/03 08:05:36;;;;;;;;;;;;;;;8.02;52.66;94579.19;4937095;29;19930;-73
2024/04/03 08:08:02;;;;;;;;;;;;;;;7.72;52.41;94582.72;4938374;28;20408;-73
2024/04/03 08:10:27;;;;;;;;;;;;;;;7.48;53.23;94579.38;4937930;28;19922;-73
2024/04/03 08:12:53;;;;;;;;;;;;;;;6.40;57.39;94575.09;4938516;29;20009;-73
2024/04/03 08:15:19;;;;;;;;;;;;;;;7.64;53.89;94586.31;4938368;28;19926;-73
2024/04/03 08:17:44;;;;;;;;;;;;;;;8.04;52.70;94570.06;4938497;29;19923;-72
2024/04/03 08:20:09;;;;;;;;;;;;;;;8.04;53.38;94562.13;4938063;28;19966;-73
2024/04/03 08:22:34;;;;;;;;;;;;;;;8.44;52.01;94568.81;4939320;28;19970;-73
2024/04/03 08:25:01;;;;;;;;;;;;;;;8.15;51.98;94570.56;4941131;28;19966;-72
2024/04/03 08:27:26;;;;;;;;;;;;;;;8.00;51.86;94567.97;4939874;28;19931;-72
2024/04/03 08:29:55;;;;;;;;;;;;;;;7.67;53.47;94563.91;4941192;28;19937;-72
2024/04/03 08:32:20;;;;;;;;;;;;;;;8.24;52.71;94566.81;4941922;28;19926;-70
2024/04/03 08:34:47;;;;;;;;;;;;;;;8.29;52.12;94564.41;4941430;28;20351;-71
2024/04/03 08:37:12;;;;;;;;;;;;;;;8.22;53.04;94566.16;4955371;28;20005;-72
2024/04/03 08:39:37;;;;;;;;;;;;;;;8.63;51.61;94554.06;4955909;28;20471;-71
2024/04/03 08:42:03;;;;;;;;;;;;;;;8.15;52.83;94557.31;4940836;28;19922;-70
2024/04/03 08:44:30;;;;;;;;;;;;;;;6.57;56.94;94562.63;4941312;28;19931;-71
2024/04/03 08:46:56;;;;;;;;;;;;;;;8.12;53.51;94552.38;4941272;28;19930;-71
2024/04/03 08:49:21;;;;;;;;;;;;;;;8.24;52.14;94560.66;4941552;28;20198;-70
2024/04/03 08:51:55;;;;;;;;;;;;;;;7.01;55.24;94561.00;4940011;28;19934;-71
2024/04/03 08:54:20;;;;;;;;;;;;;;;7.99;53.85;94561.03;4939896;28;19922;-70
2024/04/03 08:56:47;;;;;;;;;;;;;;;8.61;51.29;94553.47;4940410;29;20640;-72
2024/04/03 08:59:13;;;;;;;;;;;;;;;8.52;51.06;94554.59;4936902;28;20303;-72
2024/04/03 09:01:38;;;;;;;;;;;;;;;8.72;51.74;94546.81;4940871;29;19930;-72
2024/04/03 09:04:04;;;;;;;;;;;;;;;8.74;51.64;94550.06;4940605;28;20332;-70
2024/04/03 09:06:39;;;;;;;;;;;;;;;7.93;52.91;94557.31;4940999;28;19941;-71
2024/04/03 09:09:04;;;;;;;;;;;;;;;8.52;51.87;94546.63;4940216;29;20315;-69
2024/04/03 09:11:30;;;;;;;;;;;;;;;8.66;51.21;94552.88;4941127;28;19984;-71
2024/04/03 09:13:55;;;;;;;;;;;;;;;8.66;50.77;94547.56;4940143;28;19962;-72
2024/04/03 09:16:21;;;;;;;;;;;;;;;8.32;50.55;94554.44;4939098;28;19933;-70
2024/04/03 09:18:46;;;;;;;;;;;;;;;8.35;50.98;94548.72;4936646;28;19926;-70
2024/04/03 09:21:15;;;;;;;;;;;;;;;6.97;57.28;94551.00;4941117;29;19922;-70
2024/04/03 09:23:41;;;;;;;;;;;;;;;8.10;53.45;94539.34;4937041;28;20227;-72
2024/04/03 09:26:06;;;;;;;;;;;;;;;8.54;52.06;94542.78;4935102;29;20443;-70
2024/04/03 09:28:31;;;;;;;;;;;;;;;8.04;51.92;94540.91;4940131;28;19926;-71
2024/04/03 09:30:57;;;;;;;;;;;;;;;7.42;54.02;94551.00;4940827;28;19923;-71
2024/04/03 09:33:22;;;;;;;;;;;;;;;8.22;52.92;94552.91;4939363;28;19927;-71
2024/04/03 09:35:47;;;;;;;;;;;;;;;8.29;52.96;94553.78;4939857;28;19938;-70
2024/04/03 09:38:15;;;;;;;;;;;;;;;8.65;51.88;94543.28;4940480;29;20018;-72
2024/04/03 09:40:41;;;;;;;;;;;;;;;8.12;53.06;94542.63;4939996;28;19922;-71
2024/04/03 09:43:06;;;;;;;;;;;;;;;8.04;53.88;94542.75;4939269;28;19926;-72
2024/04/03 09:45:32;;;;;;;;;;;;;;;8.15;52.96;94541.41;4939124;29;20342;-72
2024/04/03 09:47:58;;;;;;;;;;;;;;;8.11;53.52;94543.63;4937991;28;19991;-70
2024/04/03 09:50:23;;;;;;;;;;;;;;;6.84;56.92;94533.91;4939168;28;20186;-70
2024/04/03 09:52:49;;;;;;;;;;;;;;;5.36;59.25;94545.34;4939282;28;19922;-72
2024/04/03 09:55:15;;;;;;;;;;;;;;;6.01;60.87;94546.97;4937180;28;20390;-72
2024/04/03 09:57:40;;;;;;;;;;;;;;;7.57;56.33;94539.53;4940285;29;20447;-70
2024/04/03 10:00:06;;;;;;;;;;;;;;;7.76;55.61;94536.28;4939932;28;20924;-71
2024/04/03 10:02:31;;;;;;;;;;;;;;;7.85;54.42;94529.09;4939012;28;20018;-69
2024/04/03 10:04:57;;;;;;;;;;;;;;;8.53;53.37;94533.19;4939927;28;19993;-71
2024/04/03 10:07:25;;;;;;;;;;;;;;;8.91;52.38;94529.38;4940032;28;20198;-70
2024/04/03 10:09:50;;;;;;;;;;;;;;;6.17;57.64;94536.28;4940622;28;19927;-70
2024/04/03 10:12:15;;;;;;;;;;;;;;;6.82;58.93;94535.09;4939963;28;19930;-71
2024/04/03 10:14:41;;;;;;;;;;;;;;;8.11;54.14;94540.97;4939445;28;19934;-71
2024/04/03 10:17:15;;;;;;;;;;;;;;;6.11;57.91;94543.09;4940080;28;19922;-70
2024/04/03 10:19:42;;;;;;;;;;;;;;;7.96;54.46;94532.25;4936786;28;20392;-71
2024/04/03 10:22:07;;;;;;;;;;;;;;;6.24;60.24;94539.03;4938352;28;19930;-72
2024/04/03 10:24:32;;;;;;;;;;;;;;;8.03;54.57;94533.16;4936633;28;20036;-69
2024/04/03 10:26:58;;;;;;;;;;;;;;;8.02;53.54;94528.84;4938924;28;19926;-72
2024/04/03 10:29:23;;;;;;;;;;;;;;;5.91;60.17;94529.53;4940069;28;19929;-71
2024/04/03 10:31:48;;;;;;;;;;;;;;;5.94;59.85;94526.53;4938047;28;19941;-71
2024/04/03 10:34:17;;;;;;;;;;;;;;;7.27;56.80;94519.22;4938622;28;20408;-70
2024/04/03 10:36:43;;;;;;;;;;;;;;;8.35;54.07;94520.38;4938754;28;20032;-71
2024/04/03 10:39:08;;;;;;;;;;;;;;;8.16;54.39;94524.50;4937961;28;20531;-70
2024/04/03 10:41:33;;;;;;;;;;;;;;;8.67;53.46;94509.44;4936808;29;19923;-70
2024/04/03 10:43:58;;;;;;;;;;;;;;;8.53;52.03;94521.75;4937213;28;20600;-71
2024/04/03 10:46:27;;;;;;;;;;;;;;;6.41;56.96;94523.88;4938509;28;20103;-70
2024/04/03 10:48:52;;;;;;;;;;;;;;;6.35;58.96;94527.22;4951686;28;19973;-70
2024/04/03 10:51:18;;;;;;;;;;;;;;;6.65;58.46;94519.38;4939221;28;19968;-70
2024/04/03 10:53:43;;;;;;;;;;;;;;;7.88;55.56;94522.59;4939320;28;19945;-70
2024/04/03 10:56:09;;;;;;;;;;;;;;;8.24;53.85;94521.72;4938899;28;19930;-70
2024/04/03 10:58:34;;;;;;;;;;;;;;;8.42;53.56;94521.28;4950536;28;20629;-70
2024/04/03 11:00:59;;;;;;;;;;;;;;;7.43;54.77;94526.13;4953603;28;19914;-70
2024/04/03 11:03:25;;;;;;;;;;;;;;;7.60;57.00;94524.09;4935202;28;20026;-72
2024/04/03 11:05:51;;;;;;;;;;;;;;;6.69;57.52;94528.59;4937626;28;20442;-69
2024/04/03 11:08:16;;;;;;;;;;;;;;;7.12;58.25;94524.53;4937774;28;19957;-68
2024/04/03 11:10:41;;;;;;;;;;;;;;;7.83;54.49;94533.75;4938473;28;19973;-69
2024/04/03 11:13:07;;;;;;;;;;;;;;;7.62;54.74;94526.56;4938533;29;20229;-72
2024/04/03 11:15:33;;;;;;;;;;;;;;;7.62;56.21;94526.56;4939663;28;20021;-71
2024/04/03 11:18:01;;;;;;;;;;;;;;;7.92;54.83;94521.19;4937786;28;20165;-72
2024/04/03 11:20:26;;;;;;;;;;;;;;;8.98;52.09;94526.81;4938181;28;20021;-72
2024/04/03 11:22:56;;;;;;;;;;;;;;;9.21;52.37;94512.41;4938561;28;20050;-72
2024/04/03 11:25:27;;;;;;;;;;;;;;;8.47;51.42;94522.53;4933675;29;20090;-71
2024/04/03 11:27:53;;;;;;;;;;;;;;;8.71;51.25;94523.13;4933780;28;20029;-72
2024/04/03 11:30:18;;;;;;;;;;;;;;;7.86;53.15;94528.06;4952524;28;20037;-72
2024/04/03 11:32:43;;;;;;;;;;;;;;;7.94;52.46;94528.97;4936357;29;19977;-70
2024/04/03 11:35:08;;;;;;;;;;;;;;;6.07;58.53;94533.06;4936405;28;20025;-72
2024/04/03 11:37:36;;;;;;;;;;;;;;;6.38;58.74;94534.78;4939743;28;19930;-72
2024/04/03 11:40:03;;;;;;;;;;;;;;;4.60;62.97;94535.13;4938708;28;20073;-71
2024/04/03 11:42:29;;;;;;;;;;;;;;;5.81;61.81;94534.19;4939019;28;20569;-72
2024/04/03 11:44:54;;;;;;;;;;;;;;;7.59;55.92;94527.78;4938458;29;19989;-69
2024/04/03 11:47:20;;;;;;;;;;;;;;;8.21;53.58;94527.41;4937799;28;20617;-72
2024/04/03 11:49:45;;;;;;;;;;;;;;;6.40;59.93;94532.81;4937894;28;19942;-71
2024/04/03 11:52:10;;;;;;;;;;;;;;;7.90;54.21;94520.59;4938879;28;20354;-70
2024/04/03 11:54:36;;;;;;;;;;;;;;;7.10;54.90;94534.47;4940398;28;19926;-71
2024/04/03 11:57:01;;;;;;;;;;;;;;;7.73;54.17;94534.03;4938287;28;20033;-71
2024/04/03 11:59:26;;;;;;;;;;;;;;;8.05;52.35;94537.25;4939968;28;19969;-71
2024/04/03 12:01:51;;;;;;;;;;;;;;;7.72;54.82;94527.06;4941426;29;19958;-71
2024/04/03 12:04:17;;;;;;;;;;;;;;;7.44;56.24;94533.06;4941574;28;19989;-71
2024/04/03 12:06:42;;;;;;;;;;;;;;;7.82;54.72;94531.31;4942830;28;19962;-71
2024/04/03 12:09:08;;;;;;;;;;;;;;;8.27;53.62;94539.09;4942799;29;19989;-72
2024/04/03 12:11:33;;;;;;;;;;;;;;;7.39;55.41;94552.16;4943180;28;20125;-71
2024/04/03 12:13:58;;;;;;;;;;;;;;;8.77;52.55;94532.97;4941959;28;20254;-71
2024/04/03 12:16:30;;;;;;;;;;;;;;;8.78;53.25;94531.94;4941863;28;19974;-71
2024/04/03 12:19:15;;;;;;;;;;;;;;;8.84;51.61;94533.00;4941466;28;19926;-71
2024/04/03 12:21:41;;;;;;;;;;;;;;;8.23;54.08;94543.94;4942400;28;20359;-72
2024/04/03 12:24:07;;;;;;;;;;;;;;;7.59;54.82;94548.13;4940096;29;19927;-72
2024/04/03 12:26:32;;;;;;;;;;;;;;;7.17;56.77;94534.56;4940146;28;20206;-71
2024/04/03 12:28:57;;;;;;;;;;;;;;;7.81;53.99;94540.22;4942335;29;19930;-71
2024/04/03 12:31:23;;;;;;;;;;;;;;;7.95;53.85;94544.69;4942722;28;20446;-71
2024/04/03 12:33:48;;;;;;;;;;;;;;;8.03;54.64;94547.22;4941408;28;19922;-71
2024/04/03 12:36:13;;;;;;;;;;;;;;;8.68;52.93;94541.03;4942316;28;20025;-71
2024/04/03 12:38:38;;;;;;;;;;;;;;;8.00;53.67;94544.13;4940965;28;19934;-71
2024/04/03 12:41:04;;;;;;;;;;;;;;;8.03;54.93;94533.94;4941701;28;20214;-71
2024/04/03 12:43:29;;;;;;;;;;;;;;;6.69;57.66;94530.41;4939964;28;19930;-71
2024/04/03 12:45:58;;;;;;;;;;;;;;;7.87;53.90;94540.34;4941964;28;19937;-71
2024/04/03 12:48:24;;;;;;;;;;;;;;;7.33;54.66;94536.19;4941145;28;19934;-71
2024/04/03 12:50:49;;;;;;;;;;;;;;;8.14;53.86;94539.78;4940394;28;19981;-71
2024/04/03 12:53:14;;;;;;;;;;;;;;;8.24;54.27;94539.47;4942125;28;20313;-71